FW3195 Old Westbury NY US current weather conditions

sailwx.info

Wind from 217 at 1 knots gusting 4

Air temperature 10.6° C
Dewpoint 9.3° C

Last reported at 2019-Dec-09 22:56 UTC.
Time now 2019-Dec-09 23:39 UTC

Location: N 40°49' W 073°36'.
View on Google Maps.

See reports from other nearby stations

  
Tides and Currents Weather Stations Pressure Air Temp Water Temp Dewpoint Dewpoint Depression Visibility Wind Speed Wind Dir Waves Ship Positions
date/time (UTC)wind fromknots sea level pressurealtimeterstation pressurevisibilityair tempwater tempwave heightnotes
2019-Dec-09 22:56 217 1 gusting 4 10.6
2019-Dec-09 21:56 284 1 gusting 4 11.1
2019-Dec-09 20:56 210 0 gusting 2 10.6
2019-Dec-09 19:56 240 1 gusting 4 11.7
2019-Dec-09 18:56 274 2 gusting 5 12.2
2019-Dec-09 17:56 211 2 gusting 6 12.2
2019-Dec-09 16:56 230 2 gusting 8 12.2
2019-Dec-09 15:56 292 3 gusting 7 12.2
2019-Dec-09 14:56 213 5 gusting 10 12.2
2019-Dec-09 13:56 295 3 gusting 6 10.6
2019-Dec-09 12:56 050 5.0
2019-Dec-09 11:56 050 4.4
2019-Dec-09 10:56 050 3.9
2019-Dec-09 09:56 050 3.9
2019-Dec-09 08:56 050 3.9
2019-Dec-09 07:56 198 0 gusting 2 2.8
2019-Dec-09 06:56 243 2.2
2019-Dec-09 05:56 243 1.7
2019-Dec-09 04:56 244 1.1
2019-Dec-09 03:56 243 0.6
2019-Dec-09 02:56 243 -0.0
2019-Dec-09 01:56 243 -1.1
2019-Dec-09 00:56 243 -1.7
2019-Dec-08 23:56 244 -0.0
2019-Dec-08 22:56 243 1.7
2019-Dec-08 21:56 237 0 gusting 1 3.3
2019-Dec-08 20:56 245 1 gusting 4 3.9
2019-Dec-08 19:56 228 3 gusting 6 3.9
2019-Dec-08 18:56 294 2 gusting 6 3.9
2019-Dec-08 17:56 246 2 gusting 6 3.9
2019-Dec-08 16:56 215 1 gusting 5 2.8
2019-Dec-08 15:56 225 1 gusting 4 1.7
2019-Dec-08 14:56 164 0 gusting 3 -0.0
2019-Dec-08 13:56 218 1 gusting 3 -1.7
2019-Dec-08 12:56 046 -6.1
2019-Dec-08 11:56 046 -7.2
2019-Dec-08 10:56 046 -6.7
2019-Dec-08 09:56 046 -6.1
2019-Dec-08 08:56 046 0 gusting 0 -6.1
2019-Dec-08 07:56 046 -5.6
2019-Dec-08 06:56 046 -5.6
2019-Dec-08 05:56 046 -5.0
2019-Dec-08 04:56 046 -3.9
2019-Dec-08 03:56 046 -2.8
2019-Dec-08 02:56 046 0 gusting 1 -1.1
2019-Dec-08 01:56 049 -1.7
2019-Dec-08 00:56 355 1 gusting 5 -0.0
2019-Dec-07 23:56 032 1 gusting 4 0.6